Terminal Aerodrome Forecast
Issued by NWS

Home | Current Version | Previous Version | Text Only | Print | Product List | Glossary On
Versions: 1 2 3 4 5 6 7 8 9 10 11 12
826
FTUS44 KTSA 062320
TAFFYV
TAF
KFYV 062320Z 0700/0724 23005KT P6SM SKC
     FM071600 23010KT P6SM SCT250
     FM072000 28012G20KT P6SM SCT250=

USA.gov is the U.S. government's official web portal to all federal, state and local government web resources and services.